Hasselt, Belgium
Current Conditions -  °F | °C
As of 3:25 PM on Friday 19 Dec 2014 (Local Time) from EBDT Reporting Station
Broken Clouds Broken Clouds  
Wind Chill: 44°   Ceiling: 4500
Heat Index: 46°   Visibility: 6mi
Dew Point: 43°   Wind: 5mph
Humidity: 87%   Direction: 270°W
Pressure: 29.97"   Gusts: NA
Location:  50.93°N, 5.34°E
Report Text: EBDT 191425Z AUTO 27004KT 9999 SCT035/// BKN045/// 08/06 Q1015 BLU
Loading
Personal Weather Stations






























Interactive Weather Map New forecast layout! Learn more

10-Day Weather Forecast

Advertisements
Track Severe Weather on mobile